createdAt,value
2022-08-10T00:03:24.807Z,1.20
2022-08-10T00:07:27.925Z,1.20
2022-08-10T00:11:32.344Z,1.20
2022-08-10T00:15:52.373Z,1.45
2022-08-10T00:20:04.178Z,1.30
2022-08-10T00:24:11.685Z,1.20
2022-08-10T00:28:16.056Z,1.20
2022-08-10T00:32:19.094Z,1.30
2022-08-10T00:36:22.142Z,1.30
2022-08-10T00:40:37.316Z,1.25
2022-08-10T00:44:44.213Z,1.30
2022-08-10T00:48:47.307Z,1.30
2022-08-10T00:52:57.854Z,1.25
2022-08-10T00:57:17.110Z,1.20
2022-08-10T01:02:11.131Z,1.30
2022-08-10T01:05:52.931Z,1.30
2022-08-10T01:10:07.901Z,1.20
2022-08-10T01:14:20.507Z,1.13
2022-08-10T01:18:37.782Z,1.13
2022-08-10T01:23:12.002Z,1.13
2022-08-10T01:27:27.237Z,1.10
2022-08-10T01:31:38.963Z,1.20
2022-08-10T01:35:48.278Z,1.10
2022-08-10T01:39:57.483Z,1.60
2022-08-10T01:44:05.525Z,1.27
2022-08-10T01:48:36.174Z,1.20
2022-08-10T01:52:43.935Z,1.25
2022-08-10T01:56:49.394Z,1.23
2022-08-10T02:00:54.013Z,1.25
2022-08-10T02:05:02.956Z,1.60
2022-08-10T02:09:08.201Z,1.40
2022-08-10T02:13:13.311Z,1.20
2022-08-10T02:17:59.653Z,1.20
2022-08-10T02:22:34.787Z,1.27
2022-08-10T02:26:12.565Z,1.40
2022-08-10T02:30:15.697Z,1.65
2022-08-10T02:34:19.774Z,1.73
2022-08-10T02:38:59.626Z,1.30
2022-08-10T02:45:20.128Z,1.70
2022-08-10T02:47:51.641Z,1.35
2022-08-10T02:52:07.928Z,1.83
2022-08-10T02:56:20.641Z,1.35
2022-08-10T03:00:25.611Z,1.25
2022-08-10T03:04:56.043Z,1.40
2022-08-10T03:08:58.431Z,1.38
2022-08-10T03:13:06.617Z,1.30
2022-08-10T03:17:11.221Z,1.33
2022-08-10T03:21:16.518Z,1.60
2022-08-10T03:25:23.076Z,1.27
2022-08-10T03:29:27.826Z,1.60
2022-08-10T03:33:34.209Z,1.58
2022-08-10T03:37:37.966Z,1.63
2022-08-10T03:41:53.178Z,1.60
2022-08-10T03:46:02.236Z,1.58
2022-08-10T03:50:28.913Z,1.77
2022-08-10T03:54:31.083Z,1.25
2022-08-10T03:58:35.043Z,1.45
2022-08-10T04:02:44.210Z,1.48
2022-08-10T04:06:54.450Z,1.50
2022-08-10T04:10:58.448Z,1.60
2022-08-10T04:15:01.960Z,1.40
2022-08-10T04:19:08.115Z,1.63
2022-08-10T04:23:15.646Z,1.67
2022-08-10T04:27:18.882Z,1.50
2022-08-10T04:31:23.325Z,1.60
2022-08-10T04:35:30.224Z,1.63
2022-08-10T04:39:33.400Z,1.40
2022-08-10T04:43:37.166Z,1.70
2022-08-10T04:48:00.473Z,1.70
2022-08-10T04:52:05.061Z,1.75
2022-08-10T04:56:09.317Z,1.60
2022-08-10T05:00:19.172Z,1.58
2022-08-10T05:04:34.907Z,1.52
2022-08-10T05:08:43.600Z,1.50
2022-08-10T05:12:47.086Z,1.55
2022-08-10T05:16:50.096Z,1.60
2022-08-10T05:20:53.040Z,1.70
2022-08-10T05:24:57.543Z,1.80
2022-08-10T05:29:00.530Z,1.80
2022-08-10T05:33:08.127Z,1.67
2022-08-10T05:38:12.763Z,1.85
2022-08-10T05:41:41.530Z,1.63
2022-08-10T05:46:17.340Z,1.50
2022-08-10T05:50:13.587Z,1.60
2022-08-10T05:54:16.632Z,1.80
2022-08-10T05:58:21.119Z,1.80
2022-08-10T06:02:31.157Z,1.35
2022-08-10T06:06:38.324Z,1.80
2022-08-10T06:12:23.949Z,1.77
2022-08-10T06:15:10.059Z,2.05
2022-08-10T06:19:15.039Z,2.10
2022-08-10T06:23:19.385Z,1.88
2022-08-10T06:27:34.515Z,1.88
2022-08-10T06:31:47.611Z,1.88
2022-08-10T06:35:54.804Z,1.75
2022-08-10T06:39:58.221Z,1.52
2022-08-10T06:44:06.748Z,1.58
2022-08-10T06:48:17.684Z,1.88
2022-08-10T06:52:21.501Z,1.85
2022-08-10T06:56:37.605Z,1.90
2022-08-10T07:00:45.009Z,1.75
2022-08-10T07:04:53.522Z,1.45
2022-08-10T07:08:57.988Z,1.73
2022-08-10T07:13:02.799Z,1.77
2022-08-10T07:17:07.138Z,1.80
2022-08-10T07:21:13.476Z,1.40
2022-08-10T07:25:22.412Z,1.67
2022-08-10T07:29:53.365Z,1.50
2022-08-10T07:33:56.190Z,1.45
2022-08-10T07:38:04.730Z,1.63
2022-08-10T07:42:11.096Z,1.67
2022-08-10T07:46:16.487Z,1.55
2022-08-10T07:50:22.340Z,1.60
2022-08-10T07:54:28.576Z,1.73
2022-08-10T07:58:36.885Z,1.50
2022-08-10T08:02:46.067Z,1.48
2022-08-10T08:06:50.984Z,1.55
2022-08-10T08:10:56.527Z,1.38
2022-08-10T08:15:00.941Z,1.50
2022-08-10T08:19:37.030Z,1.40
2022-08-10T08:24:15.033Z,1.60
2022-08-10T08:28:11.001Z,1.42
2022-08-10T08:32:18.754Z,1.33
2022-08-10T08:36:24.370Z,1.25
2022-08-10T08:40:30.294Z,1.40
2022-08-10T08:44:51.408Z,1.40
2022-08-10T08:49:09.809Z,1.40
2022-08-10T08:54:01.681Z,1.23
2022-08-10T08:58:02.538Z,1.25
2022-08-10T09:02:32.145Z,1.40
2022-08-10T09:06:53.487Z,1.40
2022-08-10T09:11:02.258Z,1.50
2022-08-10T09:15:09.930Z,1.13
2022-08-10T09:19:44.632Z,1.52
2022-08-10T09:24:05.267Z,1.45
2022-08-10T09:28:11.654Z,1.50
2022-08-10T09:36:16.445Z,1.40
2022-08-10T09:37:00.724Z,1.30
2022-08-10T09:41:17.527Z,1.40
2022-08-10T09:45:28.526Z,1.63
2022-08-10T09:49:54.577Z,1.40
2022-08-10T09:54:17.120Z,1.40
2022-08-10T09:58:37.678Z,1.20
2022-08-10T10:02:52.592Z,1.65
2022-08-10T10:06:57.689Z,1.20
2022-08-10T10:11:20.763Z,1.00
2022-08-10T10:15:34.809Z,1.17
2022-08-10T10:20:04.486Z,1.25
2022-08-10T10:24:20.261Z,1.30
2022-08-10T10:29:11.790Z,1.50
2022-08-10T10:33:10.589Z,1.50
2022-08-10T10:37:19.063Z,1.40
2022-08-10T10:41:55.883Z,1.20
2022-08-10T10:46:08.395Z,1.30
2022-08-10T10:50:14.299Z,1.23
2022-08-10T10:54:25.869Z,1.25
2022-08-10T10:58:35.167Z,1.42
2022-08-10T11:02:51.320Z,1.15
2022-08-10T11:07:05.093Z,1.40
2022-08-10T11:11:13.072Z,1.17
2022-08-10T11:15:43.056Z,1.30
2022-08-10T11:20:03.363Z,1.20
2022-08-10T11:24:48.193Z,1.10
2022-08-10T11:28:42.020Z,1.10
2022-08-10T11:32:56.029Z,1.23
2022-08-10T11:37:11.720Z,1.20
2022-08-10T11:42:10.113Z,1.15
2022-08-10T11:46:06.125Z,1.20
2022-08-10T11:50:18.614Z,1.05
2022-08-10T11:54:31.226Z,1.13
2022-08-10T11:58:58.770Z,1.00
2022-08-10T12:03:05.597Z,1.20
2022-08-10T12:09:17.413Z,1.20
2022-08-10T12:11:35.271Z,1.20
2022-08-10T12:15:44.714Z,1.23
2022-08-10T12:19:59.901Z,1.20
2022-08-10T12:24:12.667Z,1.30
2022-08-10T12:28:50.488Z,1.30
2022-08-10T12:33:01.868Z,1.40
2022-08-10T12:37:13.703Z,1.20
2022-08-10T12:41:43.817Z,1.25
2022-08-10T12:46:03.173Z,1.30
2022-08-10T12:50:30.185Z,1.40
2022-08-10T12:54:37.841Z,1.25
2022-08-10T12:58:58.146Z,1.20
2022-08-10T13:03:07.723Z,1.20
2022-08-10T13:08:04.044Z,1.55
2022-08-10T13:12:36.916Z,1.38
2022-08-10T13:16:00.267Z,1.30
2022-08-10T13:20:14.070Z,1.50
2022-08-10T13:24:18.991Z,1.35
2022-08-10T13:28:37.606Z,1.23
2022-08-10T13:32:50.400Z,1.10
2022-08-10T13:36:58.778Z,1.30
2022-08-10T13:41:02.845Z,1.63
2022-08-10T13:45:10.653Z,1.20
2022-08-10T13:49:15.784Z,1.17
2022-08-10T13:53:22.151Z,1.25
2022-08-10T13:57:29.093Z,1.10
2022-08-10T14:01:36.934Z,1.23
2022-08-10T14:05:44.752Z,1.20
2022-08-10T14:09:51.315Z,1.10
2022-08-10T14:13:57.279Z,1.50
2022-08-10T14:18:01.730Z,1.35
2022-08-10T14:22:05.590Z,1.40
2022-08-10T14:26:11.838Z,1.20
2022-08-10T14:30:19.486Z,1.08
2022-08-10T14:34:59.321Z,1.50
2022-08-10T14:38:54.183Z,1.45
2022-08-10T14:43:01.821Z,1.20
2022-08-10T14:47:42.336Z,1.20
2022-08-10T14:51:43.935Z,1.35
2022-08-10T14:55:59.242Z,1.10
2022-08-10T15:00:21.066Z,1.30
2022-08-10T15:04:32.071Z,1.45
2022-08-10T15:08:36.932Z,1.13
2022-08-10T15:12:41.825Z,1.50
2022-08-10T15:16:47.852Z,1.38
2022-08-10T15:20:57.060Z,1.30
2022-08-10T15:25:04.611Z,1.40
2022-08-10T15:29:24.372Z,1.50
2022-08-10T15:34:04.247Z,1.40
2022-08-10T15:38:09.431Z,1.48
2022-08-10T15:42:20.256Z,1.20
2022-08-10T15:46:33.886Z,1.33
2022-08-10T15:50:41.460Z,1.30
2022-08-10T15:54:54.387Z,1.35
2022-08-10T15:59:09.289Z,1.30
2022-08-10T16:03:23.366Z,1.42
2022-08-10T16:07:48.866Z,1.35
2022-08-10T16:12:00.035Z,1.45
2022-08-10T16:16:05.462Z,1.63
2022-08-10T16:20:11.719Z,1.50
2022-08-10T16:24:16.989Z,1.30
2022-08-10T16:28:23.737Z,1.30
2022-08-10T16:32:28.565Z,1.52
2022-08-10T16:36:39.164Z,1.58
2022-08-10T16:40:46.047Z,1.42
2022-08-10T16:44:54.523Z,1.40
2022-08-10T16:49:00.955Z,1.55
2022-08-10T16:53:07.984Z,1.60
2022-08-10T16:57:15.688Z,1.42
2022-08-10T17:01:24.306Z,1.55
2022-08-10T17:06:01.539Z,1.23
2022-08-10T17:09:55.234Z,1.50
2022-08-10T17:14:01.704Z,1.65
2022-08-10T17:18:07.378Z,1.48
2022-08-10T17:22:14.662Z,1.45
2022-08-10T17:26:25.430Z,1.52
2022-08-10T17:30:57.495Z,1.40
2022-08-10T17:35:04.106Z,1.40
2022-08-10T17:39:12.474Z,1.75
2022-08-10T17:43:58.505Z,1.30
2022-08-10T17:47:51.007Z,1.50
2022-08-10T17:51:57.705Z,1.40
2022-08-10T17:56:01.982Z,1.58
2022-08-10T18:00:08.044Z,1.80
2022-08-10T18:04:19.127Z,1.50
2022-08-10T18:08:25.175Z,1.58
2022-08-10T18:12:39.059Z,1.65
2022-08-10T18:16:43.912Z,1.88
2022-08-10T18:20:49.056Z,1.48
2022-08-10T18:24:53.904Z,1.65
2022-08-10T18:28:57.745Z,1.70
2022-08-10T18:33:01.439Z,1.90
2022-08-10T18:37:08.930Z,1.75
2022-08-10T18:41:15.672Z,1.80
2022-08-10T18:45:23.658Z,1.92
2022-08-10T18:49:31.655Z,1.65
2022-08-10T18:53:41.163Z,1.95
2022-08-10T18:58:02.131Z,1.90
2022-08-10T19:02:17.063Z,2.10
2022-08-10T19:06:41.295Z,1.75
2022-08-10T19:10:53.806Z,1.90
2022-08-10T19:15:09.775Z,2.20
2022-08-10T19:19:30.052Z,2.00
2022-08-10T19:23:47.578Z,1.92
2022-08-10T19:28:02.975Z,1.92
2022-08-10T19:32:15.074Z,2.00
2022-08-10T19:36:26.230Z,2.35
2022-08-10T19:40:44.358Z,2.00
2022-08-10T19:45:02.161Z,1.80
2022-08-10T19:49:16.082Z,2.10
2022-08-10T19:53:26.019Z,2.40
2022-08-10T19:57:36.052Z,2.75
2022-08-10T20:01:55.930Z,2.58
2022-08-10T20:06:13.302Z,2.30
2022-08-10T20:10:29.277Z,2.10
2022-08-10T20:14:38.495Z,2.08
2022-08-10T20:18:47.454Z,2.08
2022-08-10T20:22:54.087Z,2.40
2022-08-10T20:27:18.087Z,1.98
2022-08-10T20:31:24.919Z,1.95
2022-08-10T20:35:34.993Z,2.40
2022-08-10T20:39:50.912Z,2.25
2022-08-10T20:44:03.498Z,2.40
2022-08-10T20:48:17.984Z,2.17
2022-08-10T20:52:25.945Z,2.33
2022-08-10T20:56:38.775Z,2.00
2022-08-10T21:00:51.696Z,2.20
2022-08-10T21:05:02.287Z,2.20
2022-08-10T21:09:19.428Z,2.08
2022-08-10T21:13:42.143Z,2.20
2022-08-10T21:17:54.977Z,2.22
2022-08-10T21:22:12.892Z,2.30
2022-08-10T21:26:29.828Z,2.10
2022-08-10T21:30:46.951Z,2.20
2022-08-10T21:35:08.748Z,2.17
2022-08-10T21:39:21.956Z,2.50
2022-08-10T21:44:17.881Z,2.13
2022-08-10T21:48:57.563Z,2.08
2022-08-10T21:53:43.748Z,2.17
2022-08-10T21:58:09.165Z,2.13
2022-08-10T22:02:32.493Z,2.17
2022-08-10T22:07:00.847Z,2.10
2022-08-10T22:11:22.794Z,2.58
2022-08-10T22:16:10.289Z,2.30
2022-08-10T22:20:34.495Z,2.28
2022-08-10T22:25:16.492Z,2.20
2022-08-10T22:29:42.937Z,2.28
2022-08-10T22:34:16.399Z,1.98
2022-08-10T22:39:00.465Z,2.10
2022-08-10T22:43:35.865Z,2.05
2022-08-10T22:47:57.416Z,2.67
2022-08-10T22:52:07.565Z,2.05
2022-08-10T22:56:29.332Z,2.30
2022-08-10T23:00:33.248Z,2.20
2022-08-10T23:04:45.041Z,2.20
2022-08-10T23:08:51.161Z,2.05
2022-08-10T23:13:03.179Z,1.90
2022-08-10T23:18:00.726Z,2.30
2022-08-10T23:22:05.649Z,1.95
2022-08-10T23:26:11.593Z,2.33
2022-08-10T23:30:19.196Z,2.10
2022-08-10T23:34:26.477Z,2.10
2022-08-10T23:38:32.632Z,1.90
2022-08-10T23:42:39.424Z,2.17
2022-08-10T23:46:46.337Z,1.77
2022-08-10T23:50:53.369Z,2.00
2022-08-10T23:55:06.198Z,2.25
2022-08-10T23:59:13.654Z,2.03
